sensor_id;sensor_type;location;lat;lon;timestamp;P1;durP1;ratioP1;P2;durP2;ratioP2
6898;SDS011;3488;42.616;23.350;2023-04-25T00:00:58;5.68;;;5.20;;
6898;SDS011;3488;42.616;23.350;2023-04-25T00:03:25;5.72;;;4.93;;
6898;SDS011;3488;42.616;23.350;2023-04-25T00:05:52;4.95;;;4.45;;
6898;SDS011;3488;42.616;23.350;2023-04-25T00:08:21;4.88;;;4.50;;
6898;SDS011;3488;42.616;23.350;2023-04-25T00:10:50;5.22;;;4.72;;
6898;SDS011;3488;42.616;23.350;2023-04-25T00:13:17;5.30;;;4.90;;
6898;SDS011;3488;42.616;23.350;2023-04-25T00:15:44;5.40;;;4.90;;
6898;SDS011;3488;42.616;23.350;2023-04-25T00:18:13;5.30;;;5.00;;
6898;SDS011;3488;42.616;23.350;2023-04-25T00:20:41;6.32;;;5.72;;
6898;SDS011;3488;42.616;23.350;2023-04-25T00:23:11;4.68;;;4.38;;
6898;SDS011;3488;42.616;23.350;2023-04-25T00:25:42;3.78;;;3.58;;
6898;SDS011;3488;42.616;23.350;2023-04-25T00:28:11;2.78;;;2.67;;
6898;SDS011;3488;42.616;23.350;2023-04-25T00:30:38;1.95;;;1.85;;
6898;SDS011;3488;42.616;23.350;2023-04-25T00:33:05;2.90;;;2.75;;
6898;SDS011;3488;42.616;23.350;2023-04-25T00:35:32;2.45;;;2.35;;
6898;SDS011;3488;42.616;23.350;2023-04-25T00:37:59;2.65;;;2.15;;
6898;SDS011;3488;42.616;23.350;2023-04-25T00:40:26;3.30;;;3.00;;
6898;SDS011;3488;42.616;23.350;2023-04-25T00:42:54;6.05;;;5.55;;
6898;SDS011;3488;42.616;23.350;2023-04-25T00:45:22;7.90;;;7.13;;
6898;SDS011;3488;42.616;23.350;2023-04-25T00:47:54;8.73;;;7.57;;
6898;SDS011;3488;42.616;23.350;2023-04-25T00:50:21;7.82;;;7.03;;
6898;SDS011;3488;42.616;23.350;2023-04-25T00:52:48;7.82;;;7.10;;
6898;SDS011;3488;42.616;23.350;2023-04-25T00:55:15;7.13;;;6.47;;
6898;SDS011;3488;42.616;23.350;2023-04-25T00:57:43;4.75;;;4.30;;
6898;SDS011;3488;42.616;23.350;2023-04-25T01:00:10;5.57;;;5.18;;
6898;SDS011;3488;42.616;23.350;2023-04-25T01:02:40;8.70;;;6.85;;
6898;SDS011;3488;42.616;23.350;2023-04-25T01:05:08;8.75;;;6.93;;
6898;SDS011;3488;42.616;23.350;2023-04-25T01:07:35;6.80;;;6.20;;
6898;SDS011;3488;42.616;23.350;2023-04-25T01:10:03;6.60;;;6.00;;
6898;SDS011;3488;42.616;23.350;2023-04-25T01:12:31;6.90;;;5.88;;
6898;SDS011;3488;42.616;23.350;2023-04-25T01:14:59;5.35;;;4.85;;
6898;SDS011;3488;42.616;23.350;2023-04-25T01:17:25;4.40;;;4.07;;
6898;SDS011;3488;42.616;23.350;2023-04-25T01:19:54;5.18;;;4.78;;
6898;SDS011;3488;42.616;23.350;2023-04-25T01:22:23;4.43;;;4.03;;
6898;SDS011;3488;42.616;23.350;2023-04-25T01:24:50;5.13;;;4.28;;
6898;SDS011;3488;42.616;23.350;2023-04-25T01:27:17;5.10;;;4.70;;
6898;SDS011;3488;42.616;23.350;2023-04-25T01:29:45;4.95;;;4.60;;
6898;SDS011;3488;42.616;23.350;2023-04-25T01:32:13;5.22;;;4.82;;
6898;SDS011;3488;42.616;23.350;2023-04-25T01:34:40;5.68;;;5.15;;
6898;SDS011;3488;42.616;23.350;2023-04-25T01:37:08;6.63;;;5.32;;
6898;SDS011;3488;42.616;23.350;2023-04-25T01:39:36;5.47;;;5.07;;
6898;SDS011;3488;42.616;23.350;2023-04-25T01:42:04;6.70;;;6.00;;
6898;SDS011;3488;42.616;23.350;2023-04-25T01:44:31;6.38;;;5.63;;
6898;SDS011;3488;42.616;23.350;2023-04-25T01:46:58;6.45;;;5.70;;
6898;SDS011;3488;42.616;23.350;2023-04-25T01:49:25;8.07;;;7.25;;
6898;SDS011;3488;42.616;23.350;2023-04-25T01:51:52;7.22;;;6.53;;
6898;SDS011;3488;42.616;23.350;2023-04-25T01:54:19;9.32;;;8.32;;
6898;SDS011;3488;42.616;23.350;2023-04-25T01:56:51;11.13;;;9.13;;
6898;SDS011;3488;42.616;23.350;2023-04-25T01:59:18;13.60;;;10.98;;
6898;SDS011;3488;42.616;23.350;2023-04-25T02:01:46;11.80;;;10.55;;
6898;SDS011;3488;42.616;23.350;2023-04-25T02:04:14;13.98;;;11.70;;
6898;SDS011;3488;42.616;23.350;2023-04-25T02:06:41;18.45;;;12.55;;
6898;SDS011;3488;42.616;23.350;2023-04-25T02:09:08;17.92;;;12.93;;
6898;SDS011;3488;42.616;23.350;2023-04-25T02:11:35;16.83;;;13.70;;
6898;SDS011;3488;42.616;23.350;2023-04-25T02:14:04;16.10;;;12.95;;
6898;SDS011;3488;42.616;23.350;2023-04-25T02:16:32;14.95;;;12.93;;
6898;SDS011;3488;42.616;23.350;2023-04-25T02:18:59;16.35;;;12.75;;
6898;SDS011;3488;42.616;23.350;2023-04-25T02:21:26;15.35;;;12.70;;
6898;SDS011;3488;42.616;23.350;2023-04-25T02:23:53;14.85;;;12.27;;
6898;SDS011;3488;42.616;23.350;2023-04-25T02:26:20;15.38;;;12.13;;
6898;SDS011;3488;42.616;23.350;2023-04-25T02:28:48;18.40;;;14.35;;
6898;SDS011;3488;42.616;23.350;2023-04-25T02:31:18;15.02;;;12.63;;
6898;SDS011;3488;42.616;23.350;2023-04-25T02:33:44;15.98;;;12.57;;
6898;SDS011;3488;42.616;23.350;2023-04-25T02:36:11;16.23;;;12.10;;
6898;SDS011;3488;42.616;23.350;2023-04-25T02:38:38;15.70;;;12.25;;
6898;SDS011;3488;42.616;23.350;2023-04-25T02:41:05;17.30;;;12.85;;
6898;SDS011;3488;42.616;23.350;2023-04-25T02:43:32;16.90;;;12.63;;
6898;SDS011;3488;42.616;23.350;2023-04-25T02:45:59;16.13;;;12.20;;
6898;SDS011;3488;42.616;23.350;2023-04-25T02:48:28;17.13;;;13.05;;
6898;SDS011;3488;42.616;23.350;2023-04-25T02:50:55;17.23;;;13.93;;
6898;SDS011;3488;42.616;23.350;2023-04-25T02:53:22;21.15;;;13.50;;
6898;SDS011;3488;42.616;23.350;2023-04-25T02:55:49;18.05;;;13.18;;
6898;SDS011;3488;42.616;23.350;2023-04-25T02:58:17;19.05;;;14.45;;
6898;SDS011;3488;42.616;23.350;2023-04-25T03:00:44;21.65;;;14.68;;
6898;SDS011;3488;42.616;23.350;2023-04-25T03:03:11;19.58;;;13.65;;
6898;SDS011;3488;42.616;23.350;2023-04-25T03:05:40;14.40;;;11.13;;
6898;SDS011;3488;42.616;23.350;2023-04-25T03:08:07;14.05;;;10.90;;
6898;SDS011;3488;42.616;23.350;2023-04-25T03:10:34;19.33;;;12.70;;
6898;SDS011;3488;42.616;23.350;2023-04-25T03:13:01;20.23;;;14.18;;
6898;SDS011;3488;42.616;23.350;2023-04-25T03:15:27;20.23;;;14.38;;
6898;SDS011;3488;42.616;23.350;2023-04-25T03:17:54;20.42;;;14.48;;
6898;SDS011;3488;42.616;23.350;2023-04-25T03:20:21;21.02;;;13.98;;
6898;SDS011;3488;42.616;23.350;2023-04-25T03:22:50;18.08;;;13.98;;
6898;SDS011;3488;42.616;23.350;2023-04-25T03:25:17;19.25;;;14.02;;
6898;SDS011;3488;42.616;23.350;2023-04-25T03:27:44;19.50;;;14.05;;
6898;SDS011;3488;42.616;23.350;2023-04-25T03:30:11;22.05;;;12.95;;
6898;SDS011;3488;42.616;23.350;2023-04-25T03:32:38;20.63;;;13.75;;
6898;SDS011;3488;42.616;23.350;2023-04-25T03:35:05;15.82;;;12.70;;
6898;SDS011;3488;42.616;23.350;2023-04-25T03:37:33;15.00;;;12.18;;
6898;SDS011;3488;42.616;23.350;2023-04-25T03:40:02;16.77;;;12.65;;
6898;SDS011;3488;42.616;23.350;2023-04-25T03:42:29;20.63;;;13.18;;
6898;SDS011;3488;42.616;23.350;2023-04-25T03:44:56;17.13;;;13.65;;
6898;SDS011;3488;42.616;23.350;2023-04-25T03:47:23;13.90;;;11.60;;
6898;SDS011;3488;42.616;23.350;2023-04-25T03:49:50;14.02;;;11.32;;
6898;SDS011;3488;42.616;23.350;2023-04-25T03:52:17;14.35;;;11.45;;
6898;SDS011;3488;42.616;23.350;2023-04-25T03:54:44;12.13;;;10.80;;
6898;SDS011;3488;42.616;23.350;2023-04-25T03:57:13;11.45;;;10.27;;
6898;SDS011;3488;42.616;23.350;2023-04-25T03:59:41;10.00;;;9.02;;
6898;SDS011;3488;42.616;23.350;2023-04-25T04:02:08;9.30;;;8.40;;
6898;SDS011;3488;42.616;23.350;2023-04-25T04:04:35;7.63;;;7.03;;
6898;SDS011;3488;42.616;23.350;2023-04-25T04:07:02;7.05;;;6.45;;
6898;SDS011;3488;42.616;23.350;2023-04-25T04:09:30;7.47;;;6.90;;
6898;SDS011;3488;42.616;23.350;2023-04-25T04:11:57;5.82;;;5.32;;
6898;SDS011;3488;42.616;23.350;2023-04-25T04:14:25;5.18;;;4.80;;
6898;SDS011;3488;42.616;23.350;2023-04-25T04:16:52;5.22;;;4.72;;
6898;SDS011;3488;42.616;23.350;2023-04-25T04:19:20;7.68;;;6.75;;
6898;SDS011;3488;42.616;23.350;2023-04-25T04:21:47;9.48;;;8.48;;
6898;SDS011;3488;42.616;23.350;2023-04-25T04:24:14;10.38;;;7.93;;
6898;SDS011;3488;42.616;23.350;2023-04-25T04:26:43;11.63;;;8.60;;
6898;SDS011;3488;42.616;23.350;2023-04-25T04:29:11;8.07;;;7.20;;
6898;SDS011;3488;42.616;23.350;2023-04-25T04:31:47;10.55;;;8.60;;
6898;SDS011;3488;42.616;23.350;2023-04-25T04:34:14;11.40;;;9.10;;
6898;SDS011;3488;42.616;23.350;2023-04-25T04:36:43;11.45;;;8.68;;
6898;SDS011;3488;42.616;23.350;2023-04-25T04:39:11;10.27;;;8.73;;
6898;SDS011;3488;42.616;23.350;2023-04-25T04:41:38;11.63;;;8.70;;
6898;SDS011;3488;42.616;23.350;2023-04-25T04:44:05;10.80;;;9.38;;
6898;SDS011;3488;42.616;23.350;2023-04-25T04:46:34;13.52;;;10.00;;
6898;SDS011;3488;42.616;23.350;2023-04-25T04:49:04;11.43;;;10.00;;
6898;SDS011;3488;42.616;23.350;2023-04-25T04:51:31;18.02;;;10.07;;
6898;SDS011;3488;42.616;23.350;2023-04-25T04:53:59;12.80;;;10.05;;
6898;SDS011;3488;42.616;23.350;2023-04-25T04:56:27;11.73;;;10.48;;
6898;SDS011;3488;42.616;23.350;2023-04-25T04:58:54;14.95;;;11.57;;
6898;SDS011;3488;42.616;23.350;2023-04-25T05:01:21;14.70;;;11.70;;
6898;SDS011;3488;42.616;23.350;2023-04-25T05:03:48;14.80;;;11.45;;
6898;SDS011;3488;42.616;23.350;2023-04-25T05:06:17;15.45;;;11.50;;
6898;SDS011;3488;42.616;23.350;2023-04-25T05:08:45;12.07;;;10.45;;
6898;SDS011;3488;42.616;23.350;2023-04-25T05:11:11;18.02;;;13.45;;
6898;SDS011;3488;42.616;23.350;2023-04-25T05:13:39;21.15;;;15.13;;
6898;SDS011;3488;42.616;23.350;2023-04-25T05:16:06;16.88;;;13.30;;
6898;SDS011;3488;42.616;23.350;2023-04-25T05:18:32;18.23;;;14.32;;
6898;SDS011;3488;42.616;23.350;2023-04-25T05:21:00;19.40;;;15.05;;
6898;SDS011;3488;42.616;23.350;2023-04-25T05:23:28;16.70;;;13.00;;
6898;SDS011;3488;42.616;23.350;2023-04-25T05:25:55;18.50;;;12.45;;
6898;SDS011;3488;42.616;23.350;2023-04-25T05:28:23;19.48;;;12.65;;
6898;SDS011;3488;42.616;23.350;2023-04-25T05:30:50;14.18;;;11.13;;
6898;SDS011;3488;42.616;23.350;2023-04-25T05:33:17;15.10;;;11.63;;
6898;SDS011;3488;42.616;23.350;2023-04-25T05:35:44;18.13;;;13.02;;
6898;SDS011;3488;42.616;23.350;2023-04-25T05:38:12;16.40;;;13.02;;
6898;SDS011;3488;42.616;23.350;2023-04-25T05:40:41;17.05;;;13.10;;
6898;SDS011;3488;42.616;23.350;2023-04-25T05:43:08;14.75;;;12.00;;
6898;SDS011;3488;42.616;23.350;2023-04-25T05:45:35;14.27;;;11.77;;
6898;SDS011;3488;42.616;23.350;2023-04-25T05:48:02;12.68;;;11.38;;
6898;SDS011;3488;42.616;23.350;2023-04-25T05:50:29;13.00;;;11.20;;
6898;SDS011;3488;42.616;23.350;2023-04-25T05:52:56;18.58;;;14.32;;
6898;SDS011;3488;42.616;23.350;2023-04-25T05:55:23;22.02;;;16.33;;
6898;SDS011;3488;42.616;23.350;2023-04-25T05:57:51;22.33;;;15.85;;
6898;SDS011;3488;42.616;23.350;2023-04-25T06:00:18;18.35;;;14.80;;
6898;SDS011;3488;42.616;23.350;2023-04-25T06:02:47;15.10;;;13.40;;
6898;SDS011;3488;42.616;23.350;2023-04-25T06:05:14;15.65;;;13.80;;
6898;SDS011;3488;42.616;23.350;2023-04-25T06:07:41;23.27;;;17.63;;
6898;SDS011;3488;42.616;23.350;2023-04-25T06:10:09;27.60;;;19.77;;
6898;SDS011;3488;42.616;23.350;2023-04-25T06:12:36;29.48;;;19.90;;
6898;SDS011;3488;42.616;23.350;2023-04-25T06:15:05;31.27;;;20.33;;
6898;SDS011;3488;42.616;23.350;2023-04-25T06:17:33;31.77;;;20.83;;
6898;SDS011;3488;42.616;23.350;2023-04-25T06:20:00;28.25;;;19.30;;
6898;SDS011;3488;42.616;23.350;2023-04-25T06:22:28;27.25;;;19.75;;
6898;SDS011;3488;42.616;23.350;2023-04-25T06:24:54;21.50;;;16.90;;
6898;SDS011;3488;42.616;23.350;2023-04-25T06:27:22;21.80;;;15.68;;
6898;SDS011;3488;42.616;23.350;2023-04-25T06:29:49;21.77;;;16.48;;
6898;SDS011;3488;42.616;23.350;2023-04-25T06:32:17;17.13;;;15.07;;
6898;SDS011;3488;42.616;23.350;2023-04-25T06:34:44;12.00;;;10.55;;
6898;SDS011;3488;42.616;23.350;2023-04-25T06:37:11;12.05;;;10.63;;
6898;SDS011;3488;42.616;23.350;2023-04-25T06:39:38;13.68;;;12.27;;
6898;SDS011;3488;42.616;23.350;2023-04-25T06:42:05;13.20;;;11.77;;
6898;SDS011;3488;42.616;23.350;2023-04-25T06:44:32;19.02;;;11.98;;
6898;SDS011;3488;42.616;23.350;2023-04-25T06:46:59;14.27;;;11.15;;
6898;SDS011;3488;42.616;23.350;2023-04-25T06:49:27;11.32;;;9.98;;
6898;SDS011;3488;42.616;23.350;2023-04-25T06:51:54;10.82;;;9.73;;
6898;SDS011;3488;42.616;23.350;2023-04-25T06:54:23;9.68;;;8.68;;
6898;SDS011;3488;42.616;23.350;2023-04-25T06:56:52;11.15;;;7.82;;
6898;SDS011;3488;42.616;23.350;2023-04-25T06:59:19;8.48;;;7.63;;
6898;SDS011;3488;42.616;23.350;2023-04-25T07:01:46;8.13;;;7.00;;
6898;SDS011;3488;42.616;23.350;2023-04-25T07:04:13;10.55;;;6.75;;
6898;SDS011;3488;42.616;23.350;2023-04-25T07:06:41;7.80;;;7.10;;
6898;SDS011;3488;42.616;23.350;2023-04-25T07:09:09;8.50;;;6.68;;
6898;SDS011;3488;42.616;23.350;2023-04-25T07:11:36;9.20;;;6.57;;
6898;SDS011;3488;42.616;23.350;2023-04-25T07:14:03;6.72;;;6.13;;
6898;SDS011;3488;42.616;23.350;2023-04-25T07:16:30;9.82;;;6.38;;
6898;SDS011;3488;42.616;23.350;2023-04-25T07:18:57;6.95;;;6.30;;
6898;SDS011;3488;42.616;23.350;2023-04-25T07:21:24;7.13;;;6.18;;
6898;SDS011;3488;42.616;23.350;2023-04-25T07:23:53;8.35;;;6.72;;
6898;SDS011;3488;42.616;23.350;2023-04-25T07:26:20;9.02;;;7.28;;
6898;SDS011;3488;42.616;23.350;2023-04-25T07:28:47;7.47;;;6.68;;
6898;SDS011;3488;42.616;23.350;2023-04-25T07:31:16;6.80;;;6.10;;
6898;SDS011;3488;42.616;23.350;2023-04-25T07:33:43;7.55;;;6.82;;
6898;SDS011;3488;42.616;23.350;2023-04-25T07:36:11;6.70;;;6.10;;
6898;SDS011;3488;42.616;23.350;2023-04-25T07:38:40;7.47;;;6.88;;
6898;SDS011;3488;42.616;23.350;2023-04-25T07:41:09;9.55;;;6.20;;
6898;SDS011;3488;42.616;23.350;2023-04-25T07:43:36;9.18;;;7.13;;
6898;SDS011;3488;42.616;23.350;2023-04-25T07:46:04;9.23;;;7.03;;
6898;SDS011;3488;42.616;23.350;2023-04-25T07:48:31;9.98;;;7.30;;
6898;SDS011;3488;42.616;23.350;2023-04-25T07:50:58;8.15;;;7.35;;
6898;SDS011;3488;42.616;23.350;2023-04-25T07:53:25;7.32;;;6.63;;
6898;SDS011;3488;42.616;23.350;2023-04-25T07:55:52;9.27;;;6.93;;
6898;SDS011;3488;42.616;23.350;2023-04-25T07:58:21;8.55;;;7.38;;
6898;SDS011;3488;42.616;23.350;2023-04-25T08:00:48;7.22;;;6.43;;
6898;SDS011;3488;42.616;23.350;2023-04-25T08:03:15;8.70;;;7.03;;
6898;SDS011;3488;42.616;23.350;2023-04-25T08:05:42;8.05;;;6.82;;
6898;SDS011;3488;42.616;23.350;2023-04-25T08:08:10;8.18;;;7.20;;
6898;SDS011;3488;42.616;23.350;2023-04-25T08:10:38;7.85;;;6.90;;
6898;SDS011;3488;42.616;23.350;2023-04-25T08:13:05;7.57;;;6.90;;
6898;SDS011;3488;42.616;23.350;2023-04-25T08:15:34;7.75;;;6.95;;
6898;SDS011;3488;42.616;23.350;2023-04-25T08:18:02;7.85;;;7.05;;
6898;SDS011;3488;42.616;23.350;2023-04-25T08:20:29;8.68;;;6.35;;
6898;SDS011;3488;42.616;23.350;2023-04-25T08:22:56;8.15;;;6.28;;
6898;SDS011;3488;42.616;23.350;2023-04-25T08:25:23;5.72;;;5.30;;
6898;SDS011;3488;42.616;23.350;2023-04-25T08:27:50;9.00;;;6.32;;
6898;SDS011;3488;42.616;23.350;2023-04-25T08:30:17;7.55;;;3.95;;
6898;SDS011;3488;42.616;23.350;2023-04-25T08:32:45;3.78;;;3.58;;
6898;SDS011;3488;42.616;23.350;2023-04-25T08:35:12;4.63;;;4.22;;
6898;SDS011;3488;42.616;23.350;2023-04-25T08:37:41;3.42;;;3.13;;
6898;SDS011;3488;42.616;23.350;2023-04-25T08:40:08;3.50;;;3.20;;
6898;SDS011;3488;42.616;23.350;2023-04-25T08:42:41;3.60;;;3.20;;
6898;SDS011;3488;42.616;23.350;2023-04-25T08:45:09;3.55;;;3.20;;
6898;SDS011;3488;42.616;23.350;2023-04-25T08:47:37;6.20;;;2.97;;
6898;SDS011;3488;42.616;23.350;2023-04-25T08:50:08;3.70;;;2.90;;
6898;SDS011;3488;42.616;23.350;2023-04-25T08:52:36;3.13;;;2.85;;
6898;SDS011;3488;42.616;23.350;2023-04-25T08:55:06;3.28;;;2.20;;
6898;SDS011;3488;42.616;23.350;2023-04-25T08:57:35;3.13;;;2.42;;
6898;SDS011;3488;42.616;23.350;2023-04-25T09:00:04;3.10;;;2.78;;
6898;SDS011;3488;42.616;23.350;2023-04-25T09:02:33;2.65;;;2.55;;
6898;SDS011;3488;42.616;23.350;2023-04-25T09:05:00;2.90;;;2.80;;
6898;SDS011;3488;42.616;23.350;2023-04-25T09:07:30;2.70;;;2.50;;
6898;SDS011;3488;42.616;23.350;2023-04-25T09:09:58;5.15;;;2.78;;
6898;SDS011;3488;42.616;23.350;2023-04-25T09:12:28;3.47;;;2.60;;
6898;SDS011;3488;42.616;23.350;2023-04-25T09:15:02;2.17;;;2.05;;
6898;SDS011;3488;42.616;23.350;2023-04-25T09:17:31;3.67;;;3.47;;
6898;SDS011;3488;42.616;23.350;2023-04-25T09:20:05;4.88;;;3.78;;
6898;SDS011;3488;42.616;23.350;2023-04-25T09:22:36;5.88;;;4.03;;
6898;SDS011;3488;42.616;23.350;2023-04-25T09:25:07;4.38;;;3.40;;
6898;SDS011;3488;42.616;23.350;2023-04-25T09:27:35;3.35;;;3.13;;
6898;SDS011;3488;42.616;23.350;2023-04-25T09:30:03;3.20;;;3.10;;
6898;SDS011;3488;42.616;23.350;2023-04-25T09:32:30;4.15;;;3.38;;
6898;SDS011;3488;42.616;23.350;2023-04-25T09:34:57;3.95;;;3.63;;
6898;SDS011;3488;42.616;23.350;2023-04-25T09:37:25;5.13;;;4.30;;
6898;SDS011;3488;42.616;23.350;2023-04-25T09:39:55;6.70;;;5.53;;
6898;SDS011;3488;42.616;23.350;2023-04-25T09:42:24;9.23;;;6.25;;
6898;SDS011;3488;42.616;23.350;2023-04-25T09:44:52;9.77;;;6.45;;
6898;SDS011;3488;42.616;23.350;2023-04-25T09:47:20;10.65;;;6.47;;
6898;SDS011;3488;42.616;23.350;2023-04-25T09:49:49;7.97;;;5.75;;
6898;SDS011;3488;42.616;23.350;2023-04-25T09:52:17;6.70;;;5.97;;
6898;SDS011;3488;42.616;23.350;2023-04-25T09:54:45;6.65;;;5.95;;
6898;SDS011;3488;42.616;23.350;2023-04-25T09:57:15;8.45;;;6.30;;
6898;SDS011;3488;42.616;23.350;2023-04-25T09:59:43;5.85;;;5.38;;
6898;SDS011;3488;42.616;23.350;2023-04-25T10:02:12;4.55;;;4.25;;
6898;SDS011;3488;42.616;23.350;2023-04-25T10:04:40;4.97;;;4.05;;
6898;SDS011;3488;42.616;23.350;2023-04-25T10:07:08;3.60;;;3.30;;
6898;SDS011;3488;42.616;23.350;2023-04-25T10:09:36;3.47;;;3.17;;
6898;SDS011;3488;42.616;23.350;2023-04-25T10:12:06;3.58;;;3.25;;
6898;SDS011;3488;42.616;23.350;2023-04-25T10:14:35;3.55;;;3.35;;
6898;SDS011;3488;42.616;23.350;2023-04-25T10:17:02;2.35;;;2.15;;
6898;SDS011;3488;42.616;23.350;2023-04-25T10:19:29;2.55;;;2.45;;
6898;SDS011;3488;42.616;23.350;2023-04-25T10:22:00;1.25;;;1.23;;
6898;SDS011;3488;42.616;23.350;2023-04-25T10:24:33;0.93;;;0.93;;
6898;SDS011;3488;42.616;23.350;2023-04-25T10:27:02;1.95;;;0.80;;
6898;SDS011;3488;42.616;23.350;2023-04-25T10:29:31;0.57;;;0.57;;
6898;SDS011;3488;42.616;23.350;2023-04-25T10:31:59;0.80;;;0.80;;
6898;SDS011;3488;42.616;23.350;2023-04-25T10:34:37;0.93;;;0.82;;
6898;SDS011;3488;42.616;23.350;2023-04-25T10:37:08;1.23;;;0.75;;
6898;SDS011;3488;42.616;23.350;2023-04-25T10:39:36;3.17;;;0.60;;
6898;SDS011;3488;42.616;23.350;2023-04-25T10:42:05;0.98;;;0.90;;
6898;SDS011;3488;42.616;23.350;2023-04-25T10:44:33;1.58;;;0.90;;
6898;SDS011;3488;42.616;23.350;2023-04-25T10:47:05;0.63;;;0.63;;
6898;SDS011;3488;42.616;23.350;2023-04-25T10:49:35;1.65;;;0.52;;
6898;SDS011;3488;42.616;23.350;2023-04-25T10:52:24;0.47;;;0.47;;
6898;SDS011;3488;42.616;23.350;2023-04-25T10:54:53;0.95;;;0.52;;
6898;SDS011;3488;42.616;23.350;2023-04-25T10:57:30;0.55;;;0.40;;
6898;SDS011;3488;42.616;23.350;2023-04-25T11:00:05;0.90;;;0.90;;
6898;SDS011;3488;42.616;23.350;2023-04-25T11:02:44;0.60;;;0.60;;
6898;SDS011;3488;42.616;23.350;2023-04-25T11:07:58;0.88;;;0.88;;
6898;SDS011;3488;42.616;23.350;2023-04-25T11:10:26;1.13;;;0.68;;
6898;SDS011;3488;42.616;23.350;2023-04-25T11:12:53;1.65;;;0.77;;
6898;SDS011;3488;42.616;23.350;2023-04-25T11:15:20;0.70;;;0.70;;
6898;SDS011;3488;42.616;23.350;2023-04-25T11:17:50;1.48;;;0.50;;
6898;SDS011;3488;42.616;23.350;2023-04-25T11:20:17;0.40;;;0.35;;
6898;SDS011;3488;42.616;23.350;2023-04-25T11:22:45;0.75;;;0.73;;
6898;SDS011;3488;42.616;23.350;2023-04-25T11:25:14;0.50;;;0.50;;
6898;SDS011;3488;42.616;23.350;2023-04-25T11:27:51;0.68;;;0.68;;
6898;SDS011;3488;42.616;23.350;2023-04-25T11:30:19;0.40;;;0.40;;
6898;SDS011;3488;42.616;23.350;2023-04-25T11:32:48;0.30;;;0.30;;
6898;SDS011;3488;42.616;23.350;2023-04-25T11:35:15;0.30;;;0.30;;
6898;SDS011;3488;42.616;23.350;2023-04-25T11:37:43;0.40;;;0.40;;
6898;SDS011;3488;42.616;23.350;2023-04-25T11:40:11;1.10;;;0.70;;
6898;SDS011;3488;42.616;23.350;2023-04-25T11:42:39;1.13;;;0.60;;
6898;SDS011;3488;42.616;23.350;2023-04-25T11:45:10;2.05;;;0.82;;
6898;SDS011;3488;42.616;23.350;2023-04-25T11:47:38;2.00;;;0.90;;
6898;SDS011;3488;42.616;23.350;2023-04-25T11:50:07;1.52;;;1.42;;
6898;SDS011;3488;42.616;23.350;2023-04-25T11:52:38;2.05;;;1.95;;
6898;SDS011;3488;42.616;23.350;2023-04-25T11:55:07;1.50;;;1.40;;
6898;SDS011;3488;42.616;23.350;2023-04-25T11:57:37;2.00;;;1.38;;
6898;SDS011;3488;42.616;23.350;2023-04-25T12:00:09;1.52;;;1.42;;
6898;SDS011;3488;42.616;23.350;2023-04-25T12:02:42;3.10;;;1.02;;
6898;SDS011;3488;42.616;23.350;2023-04-25T12:05:12;1.15;;;1.15;;
6898;SDS011;3488;42.616;23.350;2023-04-25T12:07:40;1.08;;;1.08;;
6898;SDS011;3488;42.616;23.350;2023-04-25T12:10:08;0.75;;;0.75;;
6898;SDS011;3488;42.616;23.350;2023-04-25T12:12:38;0.57;;;0.57;;
6898;SDS011;3488;42.616;23.350;2023-04-25T12:15:08;0.57;;;0.57;;
6898;SDS011;3488;42.616;23.350;2023-04-25T12:17:36;0.60;;;0.60;;
6898;SDS011;3488;42.616;23.350;2023-04-25T12:20:08;0.70;;;0.70;;
6898;SDS011;3488;42.616;23.350;2023-04-25T12:22:40;0.80;;;0.80;;
6898;SDS011;3488;42.616;23.350;2023-04-25T12:25:09;0.55;;;0.55;;
6898;SDS011;3488;42.616;23.350;2023-04-25T12:27:38;0.70;;;0.70;;
6898;SDS011;3488;42.616;23.350;2023-04-25T12:30:07;0.82;;;0.43;;
6898;SDS011;3488;42.616;23.350;2023-04-25T12:32:40;0.43;;;0.43;;
6898;SDS011;3488;42.616;23.350;2023-04-25T12:35:08;1.35;;;0.70;;
6898;SDS011;3488;42.616;23.350;2023-04-25T12:37:37;1.02;;;0.73;;
6898;SDS011;3488;42.616;23.350;2023-04-25T12:40:07;0.50;;;0.50;;
6898;SDS011;3488;42.616;23.350;2023-04-25T12:42:35;0.50;;;0.50;;
6898;SDS011;3488;42.616;23.350;2023-04-25T12:45:02;0.60;;;0.60;;
6898;SDS011;3488;42.616;23.350;2023-04-25T12:47:29;0.50;;;0.50;;
6898;SDS011;3488;42.616;23.350;2023-04-25T12:49:56;3.78;;;0.73;;
6898;SDS011;3488;42.616;23.350;2023-04-25T12:52:23;3.78;;;0.93;;
6898;SDS011;3488;42.616;23.350;2023-04-25T12:54:52;0.75;;;0.30;;
6898;SDS011;3488;42.616;23.350;2023-04-25T12:57:19;1.00;;;0.45;;
6898;SDS011;3488;42.616;23.350;2023-04-25T12:59:46;2.63;;;0.57;;
6898;SDS011;3488;42.616;23.350;2023-04-25T13:02:13;0.65;;;0.40;;
6898;SDS011;3488;42.616;23.350;2023-04-25T13:04:40;0.65;;;0.65;;
6898;SDS011;3488;42.616;23.350;2023-04-25T13:07:07;1.38;;;0.50;;
6898;SDS011;3488;42.616;23.350;2023-04-25T13:09:34;2.05;;;0.77;;
6898;SDS011;3488;42.616;23.350;2023-04-25T13:12:04;3.75;;;0.70;;
6898;SDS011;3488;42.616;23.350;2023-04-25T13:14:31;1.08;;;0.90;;
6898;SDS011;3488;42.616;23.350;2023-04-25T13:16:58;1.92;;;1.27;;
6898;SDS011;3488;42.616;23.350;2023-04-25T13:19:25;0.93;;;0.93;;
6898;SDS011;3488;42.616;23.350;2023-04-25T13:21:52;0.85;;;0.85;;
6898;SDS011;3488;42.616;23.350;2023-04-25T13:24:19;1.52;;;1.10;;
6898;SDS011;3488;42.616;23.350;2023-04-25T13:26:46;3.40;;;1.52;;
6898;SDS011;3488;42.616;23.350;2023-04-25T13:29:15;1.42;;;1.30;;
6898;SDS011;3488;42.616;23.350;2023-04-25T13:31:42;0.85;;;0.80;;
6898;SDS011;3488;42.616;23.350;2023-04-25T13:34:09;1.65;;;1.17;;
6898;SDS011;3488;42.616;23.350;2023-04-25T13:36:37;2.22;;;1.40;;
6898;SDS011;3488;42.616;23.350;2023-04-25T13:39:04;1.30;;;1.20;;
6898;SDS011;3488;42.616;23.350;2023-04-25T13:41:31;1.73;;;1.48;;
6898;SDS011;3488;42.616;23.350;2023-04-25T13:43:58;1.67;;;1.30;;
6898;SDS011;3488;42.616;23.350;2023-04-25T13:46:28;1.15;;;1.15;;
6898;SDS011;3488;42.616;23.350;2023-04-25T13:48:55;1.23;;;1.13;;
6898;SDS011;3488;42.616;23.350;2023-04-25T13:51:22;2.33;;;1.25;;
6898;SDS011;3488;42.616;23.350;2023-04-25T13:53:49;1.30;;;1.20;;
6898;SDS011;3488;42.616;23.350;2023-04-25T13:56:16;1.85;;;1.23;;
6898;SDS011;3488;42.616;23.350;2023-04-25T13:58:44;1.70;;;1.60;;
6898;SDS011;3488;42.616;23.350;2023-04-25T14:01:11;2.92;;;2.60;;
6898;SDS011;3488;42.616;23.350;2023-04-25T14:03:40;2.72;;;2.53;;
6898;SDS011;3488;42.616;23.350;2023-04-25T14:06:07;2.55;;;2.35;;
6898;SDS011;3488;42.616;23.350;2023-04-25T14:08:34;2.28;;;2.08;;
6898;SDS011;3488;42.616;23.350;2023-04-25T14:11:02;1.40;;;1.30;;
6898;SDS011;3488;42.616;23.350;2023-04-25T14:13:29;1.83;;;1.73;;
6898;SDS011;3488;42.616;23.350;2023-04-25T14:15:56;1.80;;;1.70;;
6898;SDS011;3488;42.616;23.350;2023-04-25T14:18:23;1.58;;;1.52;;
6898;SDS011;3488;42.616;23.350;2023-04-25T14:20:51;1.15;;;1.05;;
6898;SDS011;3488;42.616;23.350;2023-04-25T14:23:18;2.05;;;1.70;;
6898;SDS011;3488;42.616;23.350;2023-04-25T14:25:45;5.28;;;3.90;;
6898;SDS011;3488;42.616;23.350;2023-04-25T14:28:15;9.95;;;6.10;;
6898;SDS011;3488;42.616;23.350;2023-04-25T14:30:41;4.38;;;3.85;;
6898;SDS011;3488;42.616;23.350;2023-04-25T14:33:08;13.30;;;5.90;;
6898;SDS011;3488;42.616;23.350;2023-04-25T14:35:36;11.95;;;5.78;;
6898;SDS011;3488;42.616;23.350;2023-04-25T14:38:05;4.07;;;3.08;;
6898;SDS011;3488;42.616;23.350;2023-04-25T14:40:33;2.17;;;1.77;;
6898;SDS011;3488;42.616;23.350;2023-04-25T14:42:59;2.00;;;1.83;;
6898;SDS011;3488;42.616;23.350;2023-04-25T14:45:26;3.42;;;1.50;;
6898;SDS011;3488;42.616;23.350;2023-04-25T14:47:53;1.38;;;1.30;;
6898;SDS011;3488;42.616;23.350;2023-04-25T14:50:21;1.50;;;1.40;;
6898;SDS011;3488;42.616;23.350;2023-04-25T14:52:48;3.15;;;1.40;;
6898;SDS011;3488;42.616;23.350;2023-04-25T14:55:16;3.58;;;1.60;;
6898;SDS011;3488;42.616;23.350;2023-04-25T14:57:43;1.70;;;1.20;;
6898;SDS011;3488;42.616;23.350;2023-04-25T15:00:11;1.38;;;1.38;;